sensor_id;sensor_type;location;lat;lon;timestamp;P1;durP1;ratioP1;P2;durP2;ratioP2
31754;SDS011;18325;52.018;4.726;2022-12-29T00:01:34;2.43;;;1.67;;
31754;SDS011;18325;52.018;4.726;2022-12-29T00:04:04;3.53;;;1.90;;
31754;SDS011;18325;52.018;4.726;2022-12-29T00:06:31;1.60;;;1.50;;
31754;SDS011;18325;52.018;4.726;2022-12-29T00:09:00;2.00;;;1.27;;
31754;SDS011;18325;52.018;4.726;2022-12-29T00:11:27;1.60;;;1.30;;
31754;SDS011;18325;52.018;4.726;2022-12-29T00:13:55;3.03;;;1.77;;
31754;SDS011;18325;52.018;4.726;2022-12-29T00:16:40;1.80;;;1.40;;
31754;SDS011;18325;52.018;4.726;2022-12-29T00:19:08;6.10;;;1.80;;
31754;SDS011;18325;52.018;4.726;2022-12-29T00:21:55;1.40;;;1.27;;
31754;SDS011;18325;52.018;4.726;2022-12-29T00:24:39;1.77;;;1.50;;
31754;SDS011;18325;52.018;4.726;2022-12-29T00:27:23;1.37;;;1.27;;
31754;SDS011;18325;52.018;4.726;2022-12-29T00:30:09;2.57;;;1.50;;
31754;SDS011;18325;52.018;4.726;2022-12-29T00:32:54;1.53;;;1.43;;
31754;SDS011;18325;52.018;4.726;2022-12-29T00:35:39;2.30;;;1.50;;
31754;SDS011;18325;52.018;4.726;2022-12-29T00:38:10;2.47;;;1.37;;
31754;SDS011;18325;52.018;4.726;2022-12-29T00:40:55;3.23;;;1.67;;
31754;SDS011;18325;52.018;4.726;2022-12-29T00:43:39;1.40;;;1.30;;
31754;SDS011;18325;52.018;4.726;2022-12-29T00:46:24;1.43;;;1.33;;
31754;SDS011;18325;52.018;4.726;2022-12-29T00:48:51;1.57;;;1.23;;
31754;SDS011;18325;52.018;4.726;2022-12-29T00:51:35;2.30;;;1.17;;
31754;SDS011;18325;52.018;4.726;2022-12-29T00:54:01;1.57;;;1.30;;
31754;SDS011;18325;52.018;4.726;2022-12-29T00:56:28;1.40;;;1.30;;
31754;SDS011;18325;52.018;4.726;2022-12-29T00:58:55;3.20;;;1.30;;
31754;SDS011;18325;52.018;4.726;2022-12-29T01:01:23;2.60;;;1.17;;
31754;SDS011;18325;52.018;4.726;2022-12-29T01:03:49;1.17;;;1.07;;
31754;SDS011;18325;52.018;4.726;2022-12-29T01:06:16;1.10;;;1.00;;
31754;SDS011;18325;52.018;4.726;2022-12-29T01:08:43;2.97;;;1.20;;
31754;SDS011;18325;52.018;4.726;2022-12-29T01:11:10;2.03;;;1.10;;
31754;SDS011;18325;52.018;4.726;2022-12-29T01:13:37;2.37;;;1.07;;
31754;SDS011;18325;52.018;4.726;2022-12-29T01:16:04;0.80;;;0.80;;
31754;SDS011;18325;52.018;4.726;2022-12-29T01:18:32;2.90;;;1.40;;
31754;SDS011;18325;52.018;4.726;2022-12-29T01:20:59;1.13;;;0.83;;
31754;SDS011;18325;52.018;4.726;2022-12-29T01:23:26;1.30;;;1.07;;
31754;SDS011;18325;52.018;4.726;2022-12-29T01:25:53;1.20;;;1.10;;
31754;SDS011;18325;52.018;4.726;2022-12-29T01:28:20;1.47;;;0.97;;
31754;SDS011;18325;52.018;4.726;2022-12-29T01:30:46;1.57;;;1.17;;
31754;SDS011;18325;52.018;4.726;2022-12-29T01:33:13;2.23;;;1.30;;
31754;SDS011;18325;52.018;4.726;2022-12-29T01:35:41;1.80;;;1.23;;
31754;SDS011;18325;52.018;4.726;2022-12-29T01:38:08;1.50;;;1.23;;
31754;SDS011;18325;52.018;4.726;2022-12-29T01:40:42;0.73;;;0.73;;
31754;SDS011;18325;52.018;4.726;2022-12-29T01:43:10;2.70;;;1.30;;
31754;SDS011;18325;52.018;4.726;2022-12-29T01:45:37;3.50;;;1.43;;
31754;SDS011;18325;52.018;4.726;2022-12-29T01:48:04;1.13;;;1.03;;
31754;SDS011;18325;52.018;4.726;2022-12-29T01:50:32;3.93;;;1.57;;
31754;SDS011;18325;52.018;4.726;2022-12-29T01:53:01;2.03;;;1.20;;
31754;SDS011;18325;52.018;4.726;2022-12-29T01:55:32;1.83;;;1.33;;
31754;SDS011;18325;52.018;4.726;2022-12-29T01:58:01;2.30;;;1.43;;
31754;SDS011;18325;52.018;4.726;2022-12-29T02:00:30;2.23;;;1.13;;
31754;SDS011;18325;52.018;4.726;2022-12-29T02:02:57;3.97;;;1.20;;
31754;SDS011;18325;52.018;4.726;2022-12-29T02:05:25;2.10;;;0.70;;
31754;SDS011;18325;52.018;4.726;2022-12-29T02:07:54;2.10;;;0.83;;
31754;SDS011;18325;52.018;4.726;2022-12-29T02:10:26;0.70;;;0.70;;
31754;SDS011;18325;52.018;4.726;2022-12-29T02:12:55;2.27;;;0.70;;
31754;SDS011;18325;52.018;4.726;2022-12-29T02:15:22;1.47;;;0.90;;
31754;SDS011;18325;52.018;4.726;2022-12-29T02:18:15;1.43;;;0.90;;
31754;SDS011;18325;52.018;4.726;2022-12-29T02:21:09;1.00;;;0.87;;
31754;SDS011;18325;52.018;4.726;2022-12-29T02:24:00;1.20;;;0.87;;
31754;SDS011;18325;52.018;4.726;2022-12-29T02:27:29;0.97;;;0.70;;
31754;SDS011;18325;52.018;4.726;2022-12-29T02:30:10;3.63;;;1.10;;
31754;SDS011;18325;52.018;4.726;2022-12-29T02:32:45;3.47;;;0.80;;
31754;SDS011;18325;52.018;4.726;2022-12-29T02:35:19;3.27;;;0.93;;
31754;SDS011;18325;52.018;4.726;2022-12-29T02:37:54;2.23;;;0.80;;
31754;SDS011;18325;52.018;4.726;2022-12-29T02:40:27;1.70;;;1.17;;
31754;SDS011;18325;52.018;4.726;2022-12-29T02:42:59;0.60;;;0.60;;
31754;SDS011;18325;52.018;4.726;2022-12-29T02:45:31;3.13;;;0.80;;
31754;SDS011;18325;52.018;4.726;2022-12-29T02:48:03;3.13;;;0.70;;
31754;SDS011;18325;52.018;4.726;2022-12-29T02:50:33;1.80;;;0.70;;
31754;SDS011;18325;52.018;4.726;2022-12-29T02:53:04;1.93;;;0.50;;
31754;SDS011;18325;52.018;4.726;2022-12-29T02:55:32;1.43;;;0.70;;
31754;SDS011;18325;52.018;4.726;2022-12-29T02:58:08;1.80;;;0.90;;
31754;SDS011;18325;52.018;4.726;2022-12-29T03:00:45;4.00;;;1.07;;
31754;SDS011;18325;52.018;4.726;2022-12-29T03:03:21;4.83;;;1.00;;
31754;SDS011;18325;52.018;4.726;2022-12-29T03:05:58;1.87;;;1.00;;
31754;SDS011;18325;52.018;4.726;2022-12-29T03:08:34;2.67;;;1.13;;
31754;SDS011;18325;52.018;4.726;2022-12-29T03:11:04;4.03;;;1.20;;
31754;SDS011;18325;52.018;4.726;2022-12-29T03:13:52;4.97;;;0.80;;
31754;SDS011;18325;52.018;4.726;2022-12-29T03:16:40;2.97;;;1.17;;
31754;SDS011;18325;52.018;4.726;2022-12-29T03:19:14;3.17;;;0.83;;
31754;SDS011;18325;52.018;4.726;2022-12-29T03:21:43;1.87;;;0.80;;
31754;SDS011;18325;52.018;4.726;2022-12-29T03:24:41;7.77;;;0.90;;
31754;SDS011;18325;52.018;4.726;2022-12-29T03:27:13;2.17;;;0.87;;
31754;SDS011;18325;52.018;4.726;2022-12-29T03:29:42;1.73;;;0.93;;
31754;SDS011;18325;52.018;4.726;2022-12-29T03:32:17;3.03;;;0.73;;
31754;SDS011;18325;52.018;4.726;2022-12-29T03:34:46;8.80;;;1.13;;
31754;SDS011;18325;52.018;4.726;2022-12-29T03:37:14;4.20;;;0.67;;
31754;SDS011;18325;52.018;4.726;2022-12-29T03:39:41;2.00;;;0.63;;
31754;SDS011;18325;52.018;4.726;2022-12-29T03:42:09;1.23;;;0.97;;
31754;SDS011;18325;52.018;4.726;2022-12-29T03:44:38;5.50;;;0.93;;
31754;SDS011;18325;52.018;4.726;2022-12-29T03:47:07;1.10;;;0.60;;
31754;SDS011;18325;52.018;4.726;2022-12-29T03:49:34;2.17;;;1.23;;
31754;SDS011;18325;52.018;4.726;2022-12-29T03:52:02;2.23;;;0.60;;
31754;SDS011;18325;52.018;4.726;2022-12-29T03:54:29;1.27;;;0.70;;
31754;SDS011;18325;52.018;4.726;2022-12-29T03:56:56;3.90;;;0.77;;
31754;SDS011;18325;52.018;4.726;2022-12-29T03:59:23;2.53;;;0.77;;
31754;SDS011;18325;52.018;4.726;2022-12-29T04:01:50;6.23;;;1.10;;
31754;SDS011;18325;52.018;4.726;2022-12-29T04:04:16;2.37;;;0.80;;
31754;SDS011;18325;52.018;4.726;2022-12-29T04:06:43;2.97;;;1.23;;
31754;SDS011;18325;52.018;4.726;2022-12-29T04:09:11;1.63;;;0.60;;
31754;SDS011;18325;52.018;4.726;2022-12-29T04:11:37;1.40;;;0.80;;
31754;SDS011;18325;52.018;4.726;2022-12-29T04:14:04;3.67;;;0.80;;
31754;SDS011;18325;52.018;4.726;2022-12-29T04:16:31;4.50;;;1.43;;
31754;SDS011;18325;52.018;4.726;2022-12-29T04:19:00;2.30;;;0.87;;
31754;SDS011;18325;52.018;4.726;2022-12-29T04:21:27;2.77;;;1.00;;
31754;SDS011;18325;52.018;4.726;2022-12-29T04:23:53;3.23;;;1.23;;
31754;SDS011;18325;52.018;4.726;2022-12-29T04:26:21;2.43;;;0.77;;
31754;SDS011;18325;52.018;4.726;2022-12-29T04:28:48;2.80;;;1.10;;
31754;SDS011;18325;52.018;4.726;2022-12-29T04:31:14;5.93;;;1.20;;
31754;SDS011;18325;52.018;4.726;2022-12-29T04:33:41;3.47;;;0.83;;
31754;SDS011;18325;52.018;4.726;2022-12-29T04:36:08;1.73;;;0.70;;
31754;SDS011;18325;52.018;4.726;2022-12-29T04:38:35;1.80;;;0.93;;
31754;SDS011;18325;52.018;4.726;2022-12-29T04:41:02;4.83;;;1.03;;
31754;SDS011;18325;52.018;4.726;2022-12-29T04:43:30;6.47;;;1.70;;
31754;SDS011;18325;52.018;4.726;2022-12-29T04:45:57;3.07;;;1.23;;
31754;SDS011;18325;52.018;4.726;2022-12-29T04:48:23;6.63;;;1.07;;
31754;SDS011;18325;52.018;4.726;2022-12-29T04:50:50;5.40;;;1.33;;
31754;SDS011;18325;52.018;4.726;2022-12-29T04:53:17;5.97;;;1.37;;
31754;SDS011;18325;52.018;4.726;2022-12-29T04:55:44;7.07;;;1.37;;
31754;SDS011;18325;52.018;4.726;2022-12-29T04:58:16;4.63;;;1.40;;
31754;SDS011;18325;52.018;4.726;2022-12-29T05:00:45;8.10;;;1.17;;
31754;SDS011;18325;52.018;4.726;2022-12-29T05:03:11;8.40;;;1.20;;
31754;SDS011;18325;52.018;4.726;2022-12-29T05:05:38;4.97;;;1.53;;
31754;SDS011;18325;52.018;4.726;2022-12-29T05:08:04;5.50;;;1.37;;
31754;SDS011;18325;52.018;4.726;2022-12-29T05:10:31;7.67;;;1.97;;
31754;SDS011;18325;52.018;4.726;2022-12-29T05:12:58;2.13;;;1.37;;
31754;SDS011;18325;52.018;4.726;2022-12-29T05:15:24;6.17;;;0.83;;
31754;SDS011;18325;52.018;4.726;2022-12-29T05:17:53;4.20;;;1.07;;
31754;SDS011;18325;52.018;4.726;2022-12-29T05:20:19;6.27;;;0.93;;
31754;SDS011;18325;52.018;4.726;2022-12-29T05:22:46;7.53;;;1.20;;
31754;SDS011;18325;52.018;4.726;2022-12-29T05:25:13;4.40;;;1.10;;
31754;SDS011;18325;52.018;4.726;2022-12-29T05:27:39;3.33;;;1.47;;
31754;SDS011;18325;52.018;4.726;2022-12-29T05:30:06;5.37;;;1.60;;
31754;SDS011;18325;52.018;4.726;2022-12-29T05:32:34;2.77;;;1.20;;
31754;SDS011;18325;52.018;4.726;2022-12-29T05:35:02;11.17;;;1.47;;
31754;SDS011;18325;52.018;4.726;2022-12-29T05:37:29;3.50;;;1.23;;
31754;SDS011;18325;52.018;4.726;2022-12-29T05:39:56;8.80;;;1.33;;
31754;SDS011;18325;52.018;4.726;2022-12-29T05:42:24;8.37;;;1.23;;
31754;SDS011;18325;52.018;4.726;2022-12-29T05:44:50;13.07;;;2.67;;
31754;SDS011;18325;52.018;4.726;2022-12-29T05:47:18;7.60;;;1.77;;
31754;SDS011;18325;52.018;4.726;2022-12-29T05:49:45;6.33;;;1.10;;
31754;SDS011;18325;52.018;4.726;2022-12-29T05:52:13;8.27;;;1.37;;
31754;SDS011;18325;52.018;4.726;2022-12-29T05:54:40;6.17;;;1.40;;
31754;SDS011;18325;52.018;4.726;2022-12-29T05:57:06;4.97;;;1.63;;
31754;SDS011;18325;52.018;4.726;2022-12-29T05:59:33;4.37;;;1.20;;
31754;SDS011;18325;52.018;4.726;2022-12-29T06:02:00;4.53;;;1.70;;
31754;SDS011;18325;52.018;4.726;2022-12-29T06:04:26;4.97;;;1.63;;
31754;SDS011;18325;52.018;4.726;2022-12-29T06:06:53;5.70;;;1.83;;
31754;SDS011;18325;52.018;4.726;2022-12-29T06:09:21;17.87;;;9.13;;
31754;SDS011;18325;52.018;4.726;2022-12-29T06:11:48;23.57;;;7.13;;
31754;SDS011;18325;52.018;4.726;2022-12-29T06:14:15;21.40;;;8.27;;
31754;SDS011;18325;52.018;4.726;2022-12-29T06:16:41;11.23;;;4.20;;
31754;SDS011;18325;52.018;4.726;2022-12-29T06:19:08;8.07;;;1.97;;
31754;SDS011;18325;52.018;4.726;2022-12-29T06:21:34;6.53;;;1.97;;
31754;SDS011;18325;52.018;4.726;2022-12-29T06:24:02;9.20;;;1.53;;
31754;SDS011;18325;52.018;4.726;2022-12-29T06:26:30;4.93;;;1.30;;
31754;SDS011;18325;52.018;4.726;2022-12-29T06:28:57;7.07;;;2.40;;
31754;SDS011;18325;52.018;4.726;2022-12-29T06:31:24;10.70;;;1.70;;
31754;SDS011;18325;52.018;4.726;2022-12-29T06:33:50;4.50;;;1.67;;
31754;SDS011;18325;52.018;4.726;2022-12-29T06:36:17;4.13;;;1.23;;
31754;SDS011;18325;52.018;4.726;2022-12-29T06:38:46;8.90;;;1.93;;
31754;SDS011;18325;52.018;4.726;2022-12-29T06:41:13;6.33;;;1.60;;
31754;SDS011;18325;52.018;4.726;2022-12-29T06:43:41;9.40;;;2.13;;
31754;SDS011;18325;52.018;4.726;2022-12-29T06:46:07;4.63;;;1.37;;
31754;SDS011;18325;52.018;4.726;2022-12-29T06:48:34;8.77;;;1.73;;
31754;SDS011;18325;52.018;4.726;2022-12-29T06:51:00;8.27;;;1.73;;
31754;SDS011;18325;52.018;4.726;2022-12-29T06:53:27;7.10;;;1.40;;
31754;SDS011;18325;52.018;4.726;2022-12-29T06:55:54;5.43;;;1.40;;
31754;SDS011;18325;52.018;4.726;2022-12-29T06:58:21;4.70;;;0.80;;
31754;SDS011;18325;52.018;4.726;2022-12-29T07:00:50;3.60;;;1.57;;
31754;SDS011;18325;52.018;4.726;2022-12-29T07:03:16;24.77;;;13.87;;
31754;SDS011;18325;52.018;4.726;2022-12-29T07:05:43;5.40;;;1.60;;
31754;SDS011;18325;52.018;4.726;2022-12-29T07:08:10;3.43;;;1.50;;
31754;SDS011;18325;52.018;4.726;2022-12-29T07:10:36;5.40;;;1.53;;
31754;SDS011;18325;52.018;4.726;2022-12-29T07:13:03;5.40;;;1.07;;
31754;SDS011;18325;52.018;4.726;2022-12-29T07:15:32;4.13;;;1.57;;
31754;SDS011;18325;52.018;4.726;2022-12-29T07:18:02;3.30;;;1.40;;
31754;SDS011;18325;52.018;4.726;2022-12-29T07:20:29;5.63;;;1.97;;
31754;SDS011;18325;52.018;4.726;2022-12-29T07:22:55;12.47;;;2.30;;
31754;SDS011;18325;52.018;4.726;2022-12-29T07:25:22;6.60;;;1.87;;
31754;SDS011;18325;52.018;4.726;2022-12-29T07:27:53;2.90;;;0.90;;
31754;SDS011;18325;52.018;4.726;2022-12-29T07:30:19;5.57;;;1.60;;
31754;SDS011;18325;52.018;4.726;2022-12-29T07:32:46;4.73;;;1.43;;
31754;SDS011;18325;52.018;4.726;2022-12-29T07:35:16;2.67;;;1.30;;
31754;SDS011;18325;52.018;4.726;2022-12-29T07:37:42;7.00;;;2.27;;
31754;SDS011;18325;52.018;4.726;2022-12-29T07:40:10;7.27;;;1.87;;
31754;SDS011;18325;52.018;4.726;2022-12-29T07:42:37;5.13;;;1.10;;
31754;SDS011;18325;52.018;4.726;2022-12-29T07:45:05;8.73;;;2.13;;
31754;SDS011;18325;52.018;4.726;2022-12-29T07:47:32;14.07;;;1.33;;
31754;SDS011;18325;52.018;4.726;2022-12-29T07:49:59;6.40;;;1.30;;
31754;SDS011;18325;52.018;4.726;2022-12-29T07:52:27;5.33;;;1.40;;
31754;SDS011;18325;52.018;4.726;2022-12-29T07:54:53;8.93;;;2.03;;
31754;SDS011;18325;52.018;4.726;2022-12-29T07:57:58;7.97;;;1.20;;
31754;SDS011;18325;52.018;4.726;2022-12-29T08:00:25;10.53;;;1.50;;
31754;SDS011;18325;52.018;4.726;2022-12-29T08:02:52;10.93;;;1.90;;
31754;SDS011;18325;52.018;4.726;2022-12-29T08:05:18;11.80;;;2.07;;
31754;SDS011;18325;52.018;4.726;2022-12-29T08:07:47;5.70;;;1.73;;
31754;SDS011;18325;52.018;4.726;2022-12-29T08:10:14;11.40;;;1.90;;
31754;SDS011;18325;52.018;4.726;2022-12-29T08:12:41;11.10;;;1.83;;
31754;SDS011;18325;52.018;4.726;2022-12-29T08:15:08;8.77;;;2.17;;
31754;SDS011;18325;52.018;4.726;2022-12-29T08:17:38;7.50;;;1.90;;
31754;SDS011;18325;52.018;4.726;2022-12-29T08:20:05;10.30;;;1.73;;
31754;SDS011;18325;52.018;4.726;2022-12-29T08:22:33;6.77;;;1.30;;
31754;SDS011;18325;52.018;4.726;2022-12-29T08:25:01;6.07;;;1.27;;
31754;SDS011;18325;52.018;4.726;2022-12-29T08:27:28;7.60;;;1.50;;
31754;SDS011;18325;52.018;4.726;2022-12-29T08:29:54;7.60;;;1.40;;
31754;SDS011;18325;52.018;4.726;2022-12-29T08:32:21;13.00;;;1.90;;
31754;SDS011;18325;52.018;4.726;2022-12-29T08:34:48;7.23;;;1.80;;
31754;SDS011;18325;52.018;4.726;2022-12-29T08:37:15;10.73;;;1.87;;
31754;SDS011;18325;52.018;4.726;2022-12-29T08:39:41;8.10;;;2.40;;
31754;SDS011;18325;52.018;4.726;2022-12-29T08:42:09;4.40;;;1.27;;
31754;SDS011;18325;52.018;4.726;2022-12-29T08:44:36;4.13;;;1.53;;
31754;SDS011;18325;52.018;4.726;2022-12-29T08:47:06;5.90;;;1.60;;
31754;SDS011;18325;52.018;4.726;2022-12-29T08:49:33;5.20;;;1.57;;
31754;SDS011;18325;52.018;4.726;2022-12-29T08:51:59;7.47;;;1.57;;
31754;SDS011;18325;52.018;4.726;2022-12-29T08:54:26;8.87;;;1.73;;
31754;SDS011;18325;52.018;4.726;2022-12-29T08:56:53;9.77;;;1.80;;
31754;SDS011;18325;52.018;4.726;2022-12-29T08:59:21;9.57;;;1.60;;
31754;SDS011;18325;52.018;4.726;2022-12-29T09:01:48;9.23;;;1.80;;
31754;SDS011;18325;52.018;4.726;2022-12-29T09:04:31;8.20;;;1.30;;
31754;SDS011;18325;52.018;4.726;2022-12-29T09:06:57;2.40;;;1.20;;
31754;SDS011;18325;52.018;4.726;2022-12-29T09:09:24;8.83;;;1.63;;
31754;SDS011;18325;52.018;4.726;2022-12-29T09:12:00;6.53;;;1.23;;
31754;SDS011;18325;52.018;4.726;2022-12-29T09:14:29;5.60;;;1.57;;
31754;SDS011;18325;52.018;4.726;2022-12-29T09:16:56;8.23;;;1.33;;
31754;SDS011;18325;52.018;4.726;2022-12-29T09:19:40;6.87;;;1.93;;
31754;SDS011;18325;52.018;4.726;2022-12-29T09:22:07;3.73;;;1.33;;
31754;SDS011;18325;52.018;4.726;2022-12-29T09:24:33;5.97;;;1.60;;
31754;SDS011;18325;52.018;4.726;2022-12-29T09:27:00;12.13;;;2.73;;
31754;SDS011;18325;52.018;4.726;2022-12-29T09:29:27;7.70;;;1.50;;
31754;SDS011;18325;52.018;4.726;2022-12-29T09:31:54;7.37;;;1.67;;
31754;SDS011;18325;52.018;4.726;2022-12-29T09:34:21;9.63;;;2.63;;
31754;SDS011;18325;52.018;4.726;2022-12-29T09:36:48;7.63;;;4.07;;
31754;SDS011;18325;52.018;4.726;2022-12-29T09:39:17;23.53;;;11.10;;
31754;SDS011;18325;52.018;4.726;2022-12-29T09:41:46;14.30;;;7.97;;
31754;SDS011;18325;52.018;4.726;2022-12-29T09:44:20;13.27;;;4.50;;
31754;SDS011;18325;52.018;4.726;2022-12-29T09:46:50;11.60;;;3.50;;
31754;SDS011;18325;52.018;4.726;2022-12-29T09:49:21;3.97;;;1.77;;
31754;SDS011;18325;52.018;4.726;2022-12-29T09:51:52;10.80;;;2.40;;
31754;SDS011;18325;52.018;4.726;2022-12-29T09:54:23;7.73;;;1.60;;
31754;SDS011;18325;52.018;4.726;2022-12-29T09:56:53;7.73;;;1.87;;
31754;SDS011;18325;52.018;4.726;2022-12-29T09:59:21;5.47;;;2.23;;
31754;SDS011;18325;52.018;4.726;2022-12-29T10:01:51;13.00;;;1.73;;
31754;SDS011;18325;52.018;4.726;2022-12-29T10:04:23;6.97;;;1.67;;
31754;SDS011;18325;52.018;4.726;2022-12-29T10:06:54;6.53;;;1.63;;
31754;SDS011;18325;52.018;4.726;2022-12-29T10:09:23;5.27;;;1.63;;
31754;SDS011;18325;52.018;4.726;2022-12-29T10:11:56;4.90;;;1.80;;
31754;SDS011;18325;52.018;4.726;2022-12-29T10:14:39;7.90;;;2.17;;
31754;SDS011;18325;52.018;4.726;2022-12-29T10:17:17;10.00;;;3.17;;
31754;SDS011;18325;52.018;4.726;2022-12-29T10:19:55;4.90;;;2.27;;
31754;SDS011;18325;52.018;4.726;2022-12-29T10:22:31;7.93;;;2.03;;
31754;SDS011;18325;52.018;4.726;2022-12-29T10:25:25;10.20;;;2.17;;
31754;SDS011;18325;52.018;4.726;2022-12-29T10:27:53;8.53;;;2.77;;
31754;SDS011;18325;52.018;4.726;2022-12-29T10:30:22;13.63;;;2.57;;
31754;SDS011;18325;52.018;4.726;2022-12-29T10:32:49;10.03;;;2.67;;
31754;SDS011;18325;52.018;4.726;2022-12-29T10:35:20;10.40;;;2.33;;
31754;SDS011;18325;52.018;4.726;2022-12-29T10:37:49;4.23;;;1.73;;
31754;SDS011;18325;52.018;4.726;2022-12-29T10:40:19;4.30;;;2.23;;
31754;SDS011;18325;52.018;4.726;2022-12-29T10:42:50;19.97;;;3.00;;
31754;SDS011;18325;52.018;4.726;2022-12-29T10:45:19;14.87;;;2.83;;
31754;SDS011;18325;52.018;4.726;2022-12-29T10:47:51;16.90;;;2.47;;
31754;SDS011;18325;52.018;4.726;2022-12-29T10:50:22;6.40;;;2.13;;
31754;SDS011;18325;52.018;4.726;2022-12-29T10:52:50;11.03;;;2.60;;
31754;SDS011;18325;52.018;4.726;2022-12-29T10:55:19;18.47;;;3.37;;
31754;SDS011;18325;52.018;4.726;2022-12-29T10:57:48;17.43;;;2.60;;
31754;SDS011;18325;52.018;4.726;2022-12-29T11:00:15;14.83;;;3.00;;
31754;SDS011;18325;52.018;4.726;2022-12-29T11:02:51;9.47;;;2.03;;
31754;SDS011;18325;52.018;4.726;2022-12-29T11:05:27;17.37;;;2.80;;
31754;SDS011;18325;52.018;4.726;2022-12-29T11:07:57;11.40;;;2.63;;
31754;SDS011;18325;52.018;4.726;2022-12-29T11:10:29;9.77;;;2.37;;
31754;SDS011;18325;52.018;4.726;2022-12-29T11:13:02;18.30;;;2.33;;
31754;SDS011;18325;52.018;4.726;2022-12-29T11:15:38;16.03;;;3.27;;
31754;SDS011;18325;52.018;4.726;2022-12-29T11:18:07;16.60;;;2.63;;
31754;SDS011;18325;52.018;4.726;2022-12-29T11:20:45;11.77;;;2.67;;
31754;SDS011;18325;52.018;4.726;2022-12-29T11:23:21;16.47;;;3.07;;
31754;SDS011;18325;52.018;4.726;2022-12-29T11:25:56;9.77;;;1.70;;
31754;SDS011;18325;52.018;4.726;2022-12-29T11:31:36;12.00;;;2.50;;
31754;SDS011;18325;52.018;4.726;2022-12-29T11:34:17;17.07;;;2.83;;
31754;SDS011;18325;52.018;4.726;2022-12-29T11:36:46;11.80;;;2.73;;
31754;SDS011;18325;52.018;4.726;2022-12-29T11:39:28;26.23;;;2.67;;
31754;SDS011;18325;52.018;4.726;2022-12-29T11:41:56;16.70;;;2.93;;
31754;SDS011;18325;52.018;4.726;2022-12-29T11:44:24;9.93;;;2.10;;
31754;SDS011;18325;52.018;4.726;2022-12-29T11:46:51;13.33;;;2.20;;
31754;SDS011;18325;52.018;4.726;2022-12-29T11:49:19;15.50;;;3.17;;
31754;SDS011;18325;52.018;4.726;2022-12-29T11:51:48;16.50;;;2.90;;
31754;SDS011;18325;52.018;4.726;2022-12-29T11:54:17;14.43;;;3.03;;
31754;SDS011;18325;52.018;4.726;2022-12-29T11:56:45;7.20;;;1.97;;
31754;SDS011;18325;52.018;4.726;2022-12-29T12:02:11;14.97;;;2.30;;
31754;SDS011;18325;52.018;4.726;2022-12-29T12:05:09;9.73;;;2.10;;
31754;SDS011;18325;52.018;4.726;2022-12-29T12:07:41;13.50;;;3.20;;
31754;SDS011;18325;52.018;4.726;2022-12-29T12:10:12;9.70;;;2.57;;
31754;SDS011;18325;52.018;4.726;2022-12-29T12:12:44;13.40;;;2.60;;
31754;SDS011;18325;52.018;4.726;2022-12-29T12:15:15;14.33;;;1.97;;
31754;SDS011;18325;52.018;4.726;2022-12-29T12:17:48;6.70;;;1.70;;
31754;SDS011;18325;52.018;4.726;2022-12-29T12:20:18;10.77;;;1.90;;
31754;SDS011;18325;52.018;4.726;2022-12-29T12:22:51;10.10;;;1.70;;
31754;SDS011;18325;52.018;4.726;2022-12-29T12:25:25;8.83;;;1.73;;
31754;SDS011;18325;52.018;4.726;2022-12-29T12:27:56;7.20;;;1.53;;
31754;SDS011;18325;52.018;4.726;2022-12-29T12:30:25;9.77;;;1.60;;
31754;SDS011;18325;52.018;4.726;2022-12-29T12:32:54;12.33;;;2.50;;
31754;SDS011;18325;52.018;4.726;2022-12-29T12:35:26;6.70;;;1.83;;
31754;SDS011;18325;52.018;4.726;2022-12-29T12:40:49;8.30;;;1.67;;
31754;SDS011;18325;52.018;4.726;2022-12-29T12:43:28;7.33;;;2.00;;
31754;SDS011;18325;52.018;4.726;2022-12-29T12:46:05;8.97;;;1.60;;
31754;SDS011;18325;52.018;4.726;2022-12-29T12:49:07;8.27;;;1.73;;
31754;SDS011;18325;52.018;4.726;2022-12-29T12:51:47;5.03;;;1.80;;
31754;SDS011;18325;52.018;4.726;2022-12-29T12:54:25;9.90;;;2.50;;
31754;SDS011;18325;52.018;4.726;2022-12-29T12:57:02;9.77;;;1.80;;
31754;SDS011;18325;52.018;4.726;2022-12-29T12:59:38;10.37;;;2.63;;
31754;SDS011;18325;52.018;4.726;2022-12-29T13:02:14;6.30;;;2.03;;
31754;SDS011;18325;52.018;4.726;2022-12-29T13:04:56;11.97;;;1.90;;
31754;SDS011;18325;52.018;4.726;2022-12-29T13:07:34;7.00;;;1.50;;
31754;SDS011;18325;52.018;4.726;2022-12-29T13:10:19;4.20;;;1.37;;
31754;SDS011;18325;52.018;4.726;2022-12-29T13:12:53;11.13;;;2.30;;
31754;SDS011;18325;52.018;4.726;2022-12-29T13:15:30;4.97;;;1.17;;
31754;SDS011;18325;52.018;4.726;2022-12-29T13:18:10;4.30;;;1.70;;
31754;SDS011;18325;52.018;4.726;2022-12-29T13:20:44;10.40;;;2.33;;
31754;SDS011;18325;52.018;4.726;2022-12-29T13:23:14;8.83;;;1.80;;
31754;SDS011;18325;52.018;4.726;2022-12-29T13:25:46;16.17;;;1.57;;
31754;SDS011;18325;52.018;4.726;2022-12-29T13:28:17;11.77;;;2.13;;
31754;SDS011;18325;52.018;4.726;2022-12-29T13:30:51;8.97;;;1.60;;
31754;SDS011;18325;52.018;4.726;2022-12-29T13:33:24;12.20;;;2.13;;
31754;SDS011;18325;52.018;4.726;2022-12-29T13:35:56;4.67;;;2.03;;
31754;SDS011;18325;52.018;4.726;2022-12-29T13:38:29;9.33;;;1.97;;
31754;SDS011;18325;52.018;4.726;2022-12-29T13:41:01;9.37;;;1.90;;
31754;SDS011;18325;52.018;4.726;2022-12-29T13:43:31;7.07;;;1.93;;
31754;SDS011;18325;52.018;4.726;2022-12-29T13:45:59;4.73;;;1.53;;
31754;SDS011;18325;52.018;4.726;2022-12-29T13:48:33;5.30;;;1.57;;
31754;SDS011;18325;52.018;4.726;2022-12-29T13:51:03;2.10;;;1.30;;
31754;SDS011;18325;52.018;4.726;2022-12-29T13:53:34;5.20;;;1.57;;
31754;SDS011;18325;52.018;4.726;2022-12-29T13:56:09;7.17;;;1.20;;
31754;SDS011;18325;52.018;4.726;2022-12-29T13:58:39;2.33;;;1.10;;
31754;SDS011;18325;52.018;4.726;2022-12-29T14:01:10;7.50;;;1.50;;
31754;SDS011;18325;52.018;4.726;2022-12-29T14:03:44;6.67;;;1.50;;
31754;SDS011;18325;52.018;4.726;2022-12-29T14:06:18;5.17;;;1.40;;
31754;SDS011;18325;52.018;4.726;2022-12-29T14:08:47;4.27;;;1.43;;
31754;SDS011;18325;52.018;4.726;2022-12-29T14:11:16;4.47;;;1.60;;
31754;SDS011;18325;52.018;4.726;2022-12-29T14:13:44;2.33;;;1.27;;
31754;SDS011;18325;52.018;4.726;2022-12-29T14:16:21;3.90;;;1.40;;
31754;SDS011;18325;52.018;4.726;2022-12-29T14:18:51;7.17;;;1.50;;
31754;SDS011;18325;52.018;4.726;2022-12-29T14:21:22;2.43;;;1.30;;
31754;SDS011;18325;52.018;4.726;2022-12-29T14:23:53;6.20;;;1.57;;
31754;SDS011;18325;52.018;4.726;2022-12-29T14:26:34;2.87;;;1.33;;
31754;SDS011;18325;52.018;4.726;2022-12-29T14:35:31;6.17;;;1.90;;
31754;SDS011;18325;52.018;4.726;2022-12-29T14:38:12;4.50;;;1.47;;
31754;SDS011;18325;52.018;4.726;2022-12-29T14:41:15;5.40;;;0.93;;
31754;SDS011;18325;52.018;4.726;2022-12-29T14:43:58;8.03;;;1.30;;
31754;SDS011;18325;52.018;4.726;2022-12-29T14:46:42;4.33;;;1.27;;
31754;SDS011;18325;52.018;4.726;2022-12-29T14:49:11;9.07;;;1.77;;
31754;SDS011;18325;52.018;4.726;2022-12-29T14:51:42;7.47;;;1.43;;
31754;SDS011;18325;52.018;4.726;2022-12-29T14:57:07;7.07;;;1.37;;
31754;SDS011;18325;52.018;4.726;2022-12-29T14:59:41;8.47;;;2.60;;
31754;SDS011;18325;52.018;4.726;2022-12-29T15:02:12;4.83;;;2.23;;
31754;SDS011;18325;52.018;4.726;2022-12-29T15:04:42;13.97;;;4.03;;
31754;SDS011;18325;52.018;4.726;2022-12-29T15:07:10;11.33;;;3.00;;
31754;SDS011;18325;52.018;4.726;2022-12-29T15:09:39;20.83;;;9.40;;
31754;SDS011;18325;52.018;4.726;2022-12-29T15:12:15;7.93;;;3.17;;
31754;SDS011;18325;52.018;4.726;2022-12-29T15:14:51;7.07;;;2.80;;
31754;SDS011;18325;52.018;4.726;2022-12-29T15:17:23;10.80;;;3.77;;
31754;SDS011;18325;52.018;4.726;2022-12-29T15:19:51;20.03;;;8.83;;
31754;SDS011;18325;52.018;4.726;2022-12-29T15:22:19;12.97;;;3.77;;
31754;SDS011;18325;52.018;4.726;2022-12-29T15:24:45;18.57;;;8.63;;
31754;SDS011;18325;52.018;4.726;2022-12-29T15:27:13;15.80;;;5.97;;